createdAt,value
2017-11-13T00:01:16.060Z,10.00
2017-11-13T00:03:43.959Z,8.80
2017-11-13T00:06:11.424Z,8.77
2017-11-13T00:08:38.860Z,10.00
2017-11-13T00:11:08.039Z,10.50
2017-11-13T00:13:35.860Z,9.60
2017-11-13T00:16:03.286Z,10.77
2017-11-13T00:18:31.920Z,10.40
2017-11-13T00:20:59.484Z,9.70
2017-11-13T00:23:26.932Z,8.77
2017-11-13T00:25:54.389Z,8.70
2017-11-13T00:28:21.857Z,9.70
2017-11-13T00:30:49.456Z,10.13
2017-11-13T00:33:16.976Z,8.90
2017-11-13T00:35:44.437Z,8.47
2017-11-13T00:38:11.855Z,9.27
2017-11-13T00:40:39.474Z,8.20
2017-11-13T00:43:06.935Z,11.73
2017-11-13T00:45:34.403Z,11.00
2017-11-13T00:48:01.888Z,9.60
2017-11-13T00:50:29.353Z,9.67
2017-11-13T00:52:56.846Z,9.10
2017-11-13T00:55:24.721Z,8.80
2017-11-13T00:57:52.612Z,7.93
2017-11-13T01:00:20.079Z,8.80
2017-11-13T01:02:47.539Z,9.93
2017-11-13T01:05:15.034Z,10.70
2017-11-13T01:07:43.198Z,9.17
2017-11-13T01:10:10.666Z,11.00
2017-11-13T01:12:38.172Z,10.23
2017-11-13T01:15:06.037Z,9.43
2017-11-13T01:17:33.539Z,7.47
2017-11-13T01:20:00.986Z,9.13
2017-11-13T01:22:28.974Z,9.10
2017-11-13T01:24:56.496Z,10.07
2017-11-13T01:27:24.001Z,9.10
2017-11-13T01:29:51.501Z,9.67
2017-11-13T01:32:19.826Z,8.80
2017-11-13T01:34:47.694Z,10.73
2017-11-13T01:37:15.179Z,12.87
2017-11-13T01:39:42.674Z,10.00
2017-11-13T01:42:10.380Z,9.00
2017-11-13T01:44:38.230Z,10.20
2017-11-13T01:47:05.684Z,11.40
2017-11-13T01:49:33.169Z,14.73
2017-11-13T01:52:01.051Z,7.53
2017-11-13T01:54:28.897Z,10.43
2017-11-13T01:56:56.763Z,10.30
2017-11-13T01:59:24.310Z,9.50
2017-11-13T02:01:52.598Z,9.70
2017-11-13T02:04:20.045Z,8.40
2017-11-13T02:06:48.090Z,10.00
2017-11-13T02:09:15.542Z,8.93
2017-11-13T02:11:42.988Z,7.70
2017-11-13T02:14:10.841Z,11.60
2017-11-13T02:16:38.300Z,11.10
2017-11-13T02:19:05.747Z,7.37
2017-11-13T02:21:34.403Z,9.67
2017-11-13T02:24:01.878Z,11.33
2017-11-13T02:26:29.365Z,8.50
2017-11-13T02:28:56.801Z,7.03
2017-11-13T02:31:24.220Z,9.20
2017-11-13T02:33:52.227Z,9.60
2017-11-13T02:36:19.679Z,11.33
2017-11-13T02:38:47.207Z,8.77
2017-11-13T02:41:14.755Z,7.67
2017-11-13T02:43:42.215Z,7.70
2017-11-13T02:46:10.990Z,9.50
2017-11-13T02:48:38.452Z,8.00
2017-11-13T02:51:05.904Z,9.80
2017-11-13T02:53:33.342Z,7.40
2017-11-13T02:56:00.804Z,7.83
2017-11-13T02:58:28.263Z,8.63
2017-11-13T03:00:55.834Z,8.17
2017-11-13T03:03:23.336Z,12.80
2017-11-13T03:05:50.891Z,7.90
2017-11-13T03:08:18.581Z,8.70
2017-11-13T03:10:46.136Z,7.33
2017-11-13T03:13:13.584Z,7.73
2017-11-13T03:15:41.050Z,8.80
2017-11-13T03:18:08.517Z,10.10
2017-11-13T03:20:35.972Z,7.83
2017-11-13T03:23:03.429Z,9.00
2017-11-13T03:25:30.896Z,7.73
2017-11-13T03:27:58.306Z,9.03
2017-11-13T03:30:25.785Z,6.87
2017-11-13T03:32:53.283Z,11.87
2017-11-13T03:35:20.735Z,10.33
2017-11-13T03:37:48.301Z,9.87
2017-11-13T03:40:16.249Z,11.47
2017-11-13T03:42:43.673Z,8.97
2017-11-13T03:45:11.624Z,9.20
2017-11-13T03:47:39.086Z,10.17
2017-11-13T03:50:06.510Z,10.20
2017-11-13T03:52:33.988Z,8.80
2017-11-13T03:55:01.428Z,11.17
2017-11-13T03:57:29.024Z,8.77
2017-11-13T03:59:56.523Z,8.33
2017-11-13T04:02:24.389Z,10.77
2017-11-13T04:04:51.847Z,10.30
2017-11-13T04:07:19.345Z,9.17
2017-11-13T04:09:46.812Z,8.77
2017-11-13T04:12:14.313Z,9.70
2017-11-13T04:14:43.781Z,10.03
2017-11-13T04:17:11.287Z,10.53
2017-11-13T04:19:39.214Z,8.93
2017-11-13T04:22:07.914Z,10.83
2017-11-13T04:24:35.487Z,12.27
2017-11-13T04:27:02.941Z,8.40
2017-11-13T04:29:30.371Z,10.60
2017-11-13T04:31:58.257Z,11.03
2017-11-13T04:34:25.739Z,8.70
2017-11-13T04:36:53.184Z,9.93
2017-11-13T04:39:20.642Z,11.30
2017-11-13T04:41:48.104Z,10.80
2017-11-13T04:44:15.543Z,10.73
2017-11-13T04:46:45.221Z,10.30
2017-11-13T04:49:13.653Z,10.03
2017-11-13T04:51:41.150Z,12.40
2017-11-13T04:54:08.902Z,10.43
2017-11-13T04:56:36.346Z,10.50
2017-11-13T04:59:03.845Z,10.70
2017-11-13T05:01:31.437Z,9.37
2017-11-13T05:03:58.877Z,9.57
2017-11-13T05:06:26.319Z,13.77
2017-11-13T05:08:53.840Z,10.87
2017-11-13T05:11:21.337Z,9.07
2017-11-13T05:13:48.810Z,10.67
2017-11-13T05:16:16.397Z,11.93
2017-11-13T05:18:43.875Z,10.97
2017-11-13T05:21:11.929Z,16.60
2017-11-13T05:23:39.385Z,10.67
2017-11-13T05:26:06.834Z,9.80
2017-11-13T05:28:34.282Z,15.60
2017-11-13T05:31:01.776Z,12.03
2017-11-13T05:33:29.239Z,11.00
2017-11-13T05:35:56.676Z,13.33
2017-11-13T05:38:24.126Z,10.53
2017-11-13T05:40:51.620Z,10.20
2017-11-13T05:43:19.068Z,10.03
2017-11-13T05:45:46.589Z,10.70
2017-11-13T05:48:14.451Z,11.27
2017-11-13T05:50:41.992Z,14.87
2017-11-13T05:53:09.443Z,13.10
2017-11-13T05:55:36.904Z,15.10
2017-11-13T05:58:04.368Z,11.00
2017-11-13T06:00:31.840Z,11.30
2017-11-13T06:02:59.815Z,14.47
2017-11-13T06:05:27.290Z,17.93
2017-11-13T06:07:54.760Z,15.00
2017-11-13T06:10:22.228Z,15.03
2017-11-13T06:12:50.082Z,12.23
2017-11-13T06:15:17.572Z,12.87
2017-11-13T06:17:45.501Z,16.17
2017-11-13T06:20:12.949Z,14.67
2017-11-13T06:22:40.434Z,15.67
2017-11-13T06:25:07.986Z,15.07
2017-11-13T06:27:35.443Z,13.97
2017-11-13T06:30:03.389Z,18.47
2017-11-13T06:32:30.849Z,12.53
2017-11-13T06:34:58.308Z,13.60
2017-11-13T06:37:25.784Z,15.17
2017-11-13T06:39:53.207Z,17.37
2017-11-13T06:42:21.044Z,14.70
2017-11-13T06:44:48.525Z,13.77
2017-11-13T06:47:15.961Z,16.80
2017-11-13T06:49:43.418Z,17.60
2017-11-13T06:52:11.001Z,14.13
2017-11-13T06:54:38.459Z,15.00
2017-11-13T06:57:06.021Z,17.93
2017-11-13T06:59:34.358Z,17.93
2017-11-13T07:02:01.858Z,16.67
2017-11-13T07:04:29.327Z,16.63
2017-11-13T07:06:56.781Z,14.07
2017-11-13T07:09:24.219Z,16.77
2017-11-13T07:11:51.742Z,16.53
2017-11-13T07:14:19.196Z,15.57
2017-11-13T07:16:46.710Z,13.00
2017-11-13T07:19:15.191Z,12.53
2017-11-13T07:21:42.699Z,11.17
2017-11-13T07:24:10.131Z,14.20
2017-11-13T07:26:37.574Z,14.93
2017-11-13T07:29:06.448Z,13.67
2017-11-13T07:31:34.297Z,14.37
2017-11-13T07:34:01.852Z,14.27
2017-11-13T07:36:29.413Z,14.40
2017-11-13T07:38:56.909Z,14.80
2017-11-13T07:41:24.802Z,12.20
2017-11-13T07:43:52.228Z,15.80
2017-11-13T07:46:20.135Z,13.10
2017-11-13T07:48:47.721Z,15.67
2017-11-13T07:51:15.180Z,12.60
2017-11-13T07:53:42.647Z,12.20
2017-11-13T07:56:10.121Z,14.23
2017-11-13T07:58:37.565Z,14.00
2017-11-13T08:01:05.021Z,18.00
2017-11-13T08:03:32.501Z,12.10
2017-11-13T08:05:59.966Z,11.63
2017-11-13T08:08:27.464Z,15.60
2017-11-13T08:10:55.347Z,11.87
2017-11-13T08:13:22.853Z,10.30
2017-11-13T08:15:50.427Z,9.50
2017-11-13T08:18:17.960Z,15.53
2017-11-13T08:20:45.434Z,14.03
2017-11-13T08:23:12.890Z,8.80
2017-11-13T08:25:40.414Z,17.07
2017-11-13T08:28:08.262Z,12.20
2017-11-13T08:30:35.706Z,10.13
2017-11-13T08:33:03.919Z,12.37
2017-11-13T08:35:31.752Z,14.97
2017-11-13T08:37:59.203Z,11.10
2017-11-13T08:40:26.895Z,9.50
2017-11-13T08:42:54.438Z,11.93
2017-11-13T08:45:21.904Z,13.70
2017-11-13T08:47:49.456Z,12.87
2017-11-13T08:50:16.930Z,13.47
2017-11-13T08:52:44.413Z,13.83
2017-11-13T08:55:11.993Z,10.83
2017-11-13T08:57:39.874Z,11.80
2017-11-13T09:00:07.726Z,15.63
2017-11-13T09:02:35.649Z,13.07
2017-11-13T09:05:03.157Z,11.77
2017-11-13T09:07:30.712Z,13.03
2017-11-13T09:09:58.202Z,14.63
2017-11-13T09:12:26.152Z,11.57
2017-11-13T09:14:54.380Z,9.70
2017-11-13T09:17:21.841Z,9.73
2017-11-13T09:19:49.360Z,8.57
2017-11-13T09:22:18.028Z,8.37
2017-11-13T09:24:45.584Z,17.43
2017-11-13T09:27:13.043Z,9.50
2017-11-13T09:29:40.551Z,11.20
2017-11-13T09:32:08.612Z,9.07
2017-11-13T09:34:36.146Z,10.00
2017-11-13T09:37:03.612Z,8.97
2017-11-13T09:39:31.121Z,8.60
2017-11-13T09:41:58.988Z,9.40
2017-11-13T09:44:26.842Z,11.93
2017-11-13T09:46:55.707Z,7.77
2017-11-13T09:49:23.178Z,9.30
2017-11-13T09:51:50.671Z,9.37
2017-11-13T09:54:18.539Z,12.60
2017-11-13T09:56:46.396Z,16.43
2017-11-13T09:59:13.949Z,9.90
2017-11-13T10:01:41.504Z,10.43
2017-11-13T10:04:09.121Z,15.07
2017-11-13T10:06:36.716Z,11.53
2017-11-13T10:09:04.205Z,10.83
2017-11-13T10:11:31.671Z,6.97
2017-11-13T10:13:59.708Z,10.20
2017-11-13T10:16:27.316Z,6.43
2017-11-13T10:18:54.735Z,7.67
2017-11-13T10:21:22.161Z,8.20
2017-11-13T10:23:50.063Z,7.27
2017-11-13T10:26:17.514Z,5.97
2017-11-13T10:28:44.986Z,7.63
2017-11-13T10:31:12.437Z,19.60
2017-11-13T10:33:39.875Z,8.17
2017-11-13T10:36:07.744Z,8.20
2017-11-13T10:38:35.205Z,9.10
2017-11-13T10:41:02.689Z,7.47
2017-11-13T10:43:30.683Z,6.07
2017-11-13T10:45:58.163Z,10.50
2017-11-13T10:48:25.621Z,8.23
2017-11-13T10:50:53.224Z,7.10
2017-11-13T10:53:20.659Z,5.47
2017-11-13T10:55:48.130Z,12.20
2017-11-13T10:58:15.605Z,5.83
2017-11-13T11:00:43.088Z,11.27
2017-11-13T11:03:10.968Z,5.90
2017-11-13T11:05:39.383Z,13.77
2017-11-13T11:08:06.945Z,11.87
2017-11-13T11:10:34.393Z,14.33
2017-11-13T11:13:02.723Z,5.83
2017-11-13T11:15:33.049Z,11.63
2017-11-13T11:18:13.854Z,10.27
2017-11-13T11:20:47.140Z,9.80
2017-11-13T11:23:17.460Z,9.93
2017-11-13T11:25:45.977Z,7.50
2017-11-13T11:28:29.227Z,7.97
2017-11-13T11:30:58.388Z,5.83
2017-11-13T11:33:37.840Z,8.00
2017-11-13T11:36:10.070Z,8.43
2017-11-13T11:38:38.533Z,13.50
2017-11-13T11:41:20.922Z,14.83
2017-11-13T11:43:49.341Z,7.90
2017-11-13T11:46:17.657Z,9.67
2017-11-13T11:48:45.869Z,11.87
2017-11-13T11:51:14.240Z,6.90
2017-11-13T11:53:45.299Z,7.67
2017-11-13T11:56:12.922Z,13.57
2017-11-13T11:58:40.361Z,5.83
2017-11-13T12:01:08.241Z,5.90
2017-11-13T12:03:36.076Z,7.60
2017-11-13T12:06:03.524Z,6.27
2017-11-13T12:08:31.009Z,7.80
2017-11-13T12:10:58.477Z,4.00
2017-11-13T12:13:26.619Z,9.40
2017-11-13T12:15:54.062Z,9.70
2017-11-13T12:18:21.599Z,13.50
2017-11-13T12:20:49.451Z,8.60
2017-11-13T12:23:16.909Z,9.60
2017-11-13T12:25:44.681Z,9.73
2017-11-13T12:28:12.562Z,8.17
2017-11-13T12:30:40.387Z,9.40
2017-11-13T12:33:07.860Z,5.60
2017-11-13T12:35:35.332Z,9.00
2017-11-13T12:38:02.770Z,7.50
2017-11-13T12:40:30.268Z,10.77
2017-11-13T12:42:58.566Z,19.20
2017-11-13T12:45:26.413Z,11.90
2017-11-13T12:47:53.853Z,10.53
2017-11-13T12:50:21.338Z,8.93
2017-11-13T12:52:48.876Z,7.33
2017-11-13T12:55:16.351Z,5.97
2017-11-13T12:57:45.321Z,4.80
2017-11-13T13:00:12.840Z,11.37
2017-11-13T13:02:41.341Z,6.23
2017-11-13T13:05:09.236Z,11.40
2017-11-13T13:07:36.663Z,7.30
2017-11-13T13:10:05.074Z,5.97
2017-11-13T13:12:32.538Z,5.70
2017-11-13T13:14:59.979Z,5.90
2017-11-13T13:17:28.827Z,4.50
2017-11-13T13:19:56.282Z,12.43
2017-11-13T13:22:23.822Z,6.37
2017-11-13T13:24:51.315Z,4.03
2017-11-13T13:27:18.762Z,8.03
2017-11-13T13:29:46.343Z,10.73
2017-11-13T13:32:13.813Z,4.83
2017-11-13T13:34:41.337Z,5.90
2017-11-13T13:37:08.774Z,5.80
2017-11-13T13:39:37.674Z,7.33
2017-11-13T13:42:17.354Z,8.30
2017-11-13T13:44:44.812Z,7.50
2017-11-13T13:47:12.291Z,7.07
2017-11-13T13:49:39.744Z,9.00
2017-11-13T13:52:07.245Z,11.33
2017-11-13T13:54:34.690Z,8.13
2017-11-13T13:57:02.153Z,8.60
2017-11-13T13:59:29.683Z,7.87
2017-11-13T14:01:57.198Z,9.53
2017-11-13T14:04:25.508Z,5.50
2017-11-13T14:06:53.009Z,5.27
2017-11-13T14:09:20.455Z,7.83
2017-11-13T14:11:47.935Z,9.60
2017-11-13T14:14:15.417Z,9.67
2017-11-13T14:16:42.946Z,7.10
2017-11-13T14:19:10.369Z,5.80
2017-11-13T14:21:38.317Z,7.33
2017-11-13T14:24:06.262Z,10.47
2017-11-13T14:26:33.823Z,9.00
2017-11-13T14:29:01.352Z,4.70
2017-11-13T14:31:28.782Z,8.73
2017-11-13T14:33:56.789Z,4.33
2017-11-13T14:36:24.318Z,6.30
2017-11-13T14:38:51.745Z,7.83
2017-11-13T14:41:19.533Z,8.37
2017-11-13T14:43:46.940Z,5.83
2017-11-13T14:46:14.418Z,3.57
2017-11-13T14:48:42.787Z,5.83
2017-11-13T14:51:10.227Z,6.90
2017-11-13T14:53:38.102Z,8.57
2017-11-13T14:56:05.559Z,8.83
2017-11-13T14:58:33.656Z,5.97
2017-11-13T15:01:01.164Z,9.67
2017-11-13T15:03:28.639Z,8.00
2017-11-13T15:05:56.120Z,9.63
2017-11-13T15:08:24.044Z,7.60
2017-11-13T15:10:52.547Z,6.20
2017-11-13T15:13:20.095Z,4.17
2017-11-13T15:15:47.492Z,6.00
2017-11-13T15:18:15.378Z,7.57
2017-11-13T15:20:43.908Z,7.50
2017-11-13T15:23:11.428Z,9.93
2017-11-13T15:25:39.367Z,9.20
2017-11-13T15:28:06.866Z,9.97
2017-11-13T15:30:34.367Z,8.47
2017-11-13T15:33:01.870Z,8.53
2017-11-13T15:35:29.717Z,8.20
2017-11-13T15:37:57.301Z,15.77
2017-11-13T15:40:24.833Z,7.57
2017-11-13T15:42:52.317Z,7.20
2017-11-13T15:45:19.741Z,8.27
2017-11-13T15:47:47.837Z,10.13
2017-11-13T15:50:16.549Z,7.43
2017-11-13T15:52:44.025Z,9.60
2017-11-13T15:55:11.462Z,9.13
2017-11-13T15:57:38.918Z,9.20
2017-11-13T16:00:06.491Z,9.00
2017-11-13T16:02:33.939Z,12.48
2017-11-13T16:05:01.424Z,7.37
2017-11-13T16:07:29.787Z,5.20
2017-11-13T16:09:57.299Z,5.07
2017-11-13T16:12:24.754Z,3.83
2017-11-13T16:14:52.761Z,8.13
2017-11-13T16:17:20.218Z,12.50
2017-11-13T16:19:47.757Z,4.93
2017-11-13T16:22:15.696Z,8.43
2017-11-13T16:24:43.172Z,9.40
2017-11-13T16:27:11.119Z,8.33
2017-11-13T16:29:38.669Z,10.13
2017-11-13T16:32:06.110Z,10.07
2017-11-13T16:34:33.736Z,9.93
2017-11-13T16:37:01.487Z,8.73
2017-11-13T16:39:29.005Z,11.83
2017-11-13T16:41:56.485Z,10.40
2017-11-13T16:44:23.956Z,10.37
2017-11-13T16:46:51.714Z,13.63
2017-11-13T16:49:19.270Z,11.97
2017-11-13T16:51:46.841Z,13.23
2017-11-13T16:54:14.357Z,10.77
2017-11-13T16:56:42.186Z,15.37
2017-11-13T16:59:09.630Z,8.53
2017-11-13T17:01:37.098Z,12.40
2017-11-13T17:04:04.550Z,14.10
2017-11-13T17:06:32.014Z,19.03
2017-11-13T17:08:59.434Z,13.60
2017-11-13T17:11:27.418Z,14.43
2017-11-13T17:13:55.414Z,12.87
2017-11-13T17:16:23.126Z,8.93
2017-11-13T17:18:50.575Z,19.17
2017-11-13T17:21:18.108Z,10.33
2017-11-13T17:23:45.685Z,9.60
2017-11-13T17:26:13.117Z,7.17
2017-11-13T17:28:41.431Z,12.50
2017-11-13T17:31:08.852Z,15.20
2017-11-13T17:33:36.664Z,9.10
2017-11-13T17:36:04.119Z,7.00
2017-11-13T17:38:31.561Z,7.70
2017-11-13T17:40:58.996Z,12.83
2017-11-13T17:43:26.840Z,13.57
2017-11-13T17:45:54.366Z,10.03
2017-11-13T17:48:23.260Z,11.00
2017-11-13T17:50:50.744Z,12.20
2017-11-13T17:53:18.145Z,9.87
2017-11-13T17:55:46.763Z,11.07
2017-11-13T17:58:14.234Z,11.50
2017-11-13T18:00:41.696Z,13.40
2017-11-13T18:03:09.121Z,15.63
2017-11-13T18:05:37.032Z,7.67
2017-11-13T18:08:04.452Z,12.13
2017-11-13T18:10:31.962Z,12.73
2017-11-13T18:12:59.381Z,13.03
2017-11-13T18:15:27.219Z,10.10
2017-11-13T18:17:54.645Z,12.87
2017-11-13T18:20:22.113Z,12.10
2017-11-13T18:22:49.608Z,14.70
2017-11-13T18:25:17.043Z,14.10
2017-11-13T18:27:44.482Z,16.17
2017-11-13T18:30:11.982Z,10.73
2017-11-13T18:32:39.532Z,12.60
2017-11-13T18:35:06.996Z,13.30
2017-11-13T18:37:34.440Z,12.77
2017-11-13T18:40:01.914Z,8.37
2017-11-13T18:42:29.337Z,11.10
2017-11-13T18:44:57.235Z,17.60
2017-11-13T18:47:24.710Z,16.80
2017-11-13T18:49:52.401Z,16.50
2017-11-13T18:52:19.920Z,7.67
2017-11-13T18:54:47.353Z,8.73
2017-11-13T18:57:15.167Z,12.53
2017-11-13T18:59:42.610Z,12.53
2017-11-13T19:02:10.072Z,12.03
2017-11-13T19:04:37.497Z,15.33
2017-11-13T19:07:05.417Z,10.13
2017-11-13T19:09:32.864Z,11.50
2017-11-13T19:12:00.293Z,13.37
2017-11-13T19:14:28.212Z,13.63
2017-11-13T19:16:56.459Z,13.97
2017-11-13T19:19:24.270Z,15.33
2017-11-13T19:21:51.703Z,18.67
2017-11-13T19:24:19.135Z,8.00
2017-11-13T19:26:46.958Z,15.40
2017-11-13T19:29:14.380Z,15.77
2017-11-13T19:31:42.204Z,16.17
2017-11-13T19:34:09.667Z,12.93
2017-11-13T19:36:37.092Z,12.80
2017-11-13T19:39:04.516Z,13.17
2017-11-13T19:41:31.966Z,16.33
2017-11-13T19:43:59.459Z,15.93
2017-11-13T19:46:27.387Z,11.13
2017-11-13T19:48:54.983Z,16.40
2017-11-13T19:51:22.950Z,16.47
2017-11-13T19:53:51.714Z,17.50
2017-11-13T19:56:19.334Z,15.83
2017-11-13T19:58:47.123Z,12.93
2017-11-13T20:01:14.890Z,15.03
2017-11-13T20:03:42.806Z,20.00
2017-11-13T20:06:10.940Z,13.47
2017-11-13T20:08:40.444Z,17.13
2017-11-13T20:11:08.083Z,22.37
2017-11-13T20:13:35.727Z,16.67
2017-11-13T20:16:03.679Z,18.40
2017-11-13T20:18:31.321Z,21.20
2017-11-13T20:20:58.851Z,15.90
2017-11-13T20:23:26.821Z,18.20
2017-11-13T20:25:54.797Z,16.10
2017-11-13T20:28:22.649Z,16.80
2017-11-13T20:30:50.156Z,16.50
2017-11-13T20:33:18.448Z,15.03
2017-11-13T20:35:45.886Z,14.20
2017-11-13T20:38:13.310Z,18.30
2017-11-13T20:40:40.737Z,12.57
2017-11-13T20:43:08.206Z,13.27
2017-11-13T20:45:35.651Z,16.00
2017-11-13T20:48:03.112Z,18.70
2017-11-13T20:50:30.513Z,14.73
2017-11-13T20:52:58.174Z,11.93
2017-11-13T20:55:26.625Z,14.57
2017-11-13T20:57:54.060Z,15.00
2017-11-13T21:00:21.493Z,16.00
2017-11-13T21:02:49.445Z,16.17
2017-11-13T21:05:16.892Z,13.97
2017-11-13T21:07:44.341Z,16.37
2017-11-13T21:10:11.761Z,18.87
2017-11-13T21:12:39.607Z,15.87
2017-11-13T21:15:07.026Z,16.37
2017-11-13T21:17:34.503Z,20.30
2017-11-13T21:20:01.967Z,17.93
2017-11-13T21:22:29.413Z,25.13
2017-11-13T21:24:56.841Z,17.33
2017-11-13T21:27:24.661Z,17.90
2017-11-13T21:29:52.125Z,17.30
2017-11-13T21:32:19.580Z,17.00
2017-11-13T21:34:47.062Z,16.97
2017-11-13T21:37:14.491Z,20.20
2017-11-13T21:39:41.956Z,18.20
2017-11-13T21:42:10.545Z,32.53
2017-11-13T21:44:38.019Z,21.93
2017-11-13T21:47:05.466Z,18.60
2017-11-13T21:49:32.915Z,17.37
2017-11-13T21:52:00.354Z,16.67
2017-11-13T21:54:28.254Z,18.83
2017-11-13T21:56:57.290Z,23.63
2017-11-13T21:59:25.023Z,18.27
2017-11-13T22:01:52.686Z,18.10
2017-11-13T22:04:20.158Z,16.63
2017-11-13T22:06:47.717Z,22.50
2017-11-13T22:09:15.136Z,23.60
2017-11-13T22:11:43.165Z,22.73
2017-11-13T22:14:10.631Z,23.87
2017-11-13T22:16:38.077Z,22.70
2017-11-13T22:19:05.545Z,19.60
2017-11-13T22:21:32.977Z,19.80
2017-11-13T22:24:00.797Z,21.30
2017-11-13T22:26:28.334Z,20.50
2017-11-13T22:28:55.769Z,18.77
2017-11-13T22:31:23.677Z,23.40
2017-11-13T22:33:51.505Z,26.00
2017-11-13T22:36:19.340Z,25.17
2017-11-13T22:38:46.792Z,21.20
2017-11-13T22:41:14.225Z,25.33
2017-11-13T22:43:41.650Z,21.27
2017-11-13T22:46:09.204Z,22.60
2017-11-13T22:48:36.737Z,20.97
2017-11-13T22:51:04.153Z,26.53
2017-11-13T22:53:31.595Z,24.70
2017-11-13T22:55:59.024Z,23.20
2017-11-13T22:58:26.577Z,28.27
2017-11-13T23:00:54.000Z,29.07
2017-11-13T23:03:21.921Z,23.27
2017-11-13T23:05:49.359Z,25.30
2017-11-13T23:08:16.791Z,31.00
2017-11-13T23:10:45.112Z,27.67
2017-11-13T23:13:12.576Z,26.90
2017-11-13T23:15:40.169Z,25.50
2017-11-13T23:18:07.647Z,23.70
2017-11-13T23:20:35.098Z,28.60
2017-11-13T23:23:02.544Z,19.67
2017-11-13T23:25:29.997Z,22.27
2017-11-13T23:27:57.469Z,21.50
2017-11-13T23:30:24.910Z,19.73
2017-11-13T23:32:52.381Z,20.63
2017-11-13T23:35:19.841Z,25.93
2017-11-13T23:37:47.298Z,24.03
2017-11-13T23:40:14.742Z,23.40
2017-11-13T23:42:42.188Z,24.40
2017-11-13T23:45:09.654Z,22.03
2017-11-13T23:47:37.205Z,19.87
2017-11-13T23:50:05.026Z,22.03
2017-11-13T23:52:32.473Z,17.20
2017-11-13T23:55:01.021Z,19.87
2017-11-13T23:57:28.972Z,17.73
2017-11-13T23:59:56.514Z,20.53
